createdAt,value
2018-06-27T00:01:49.489Z,4.90
2018-06-27T00:04:17.439Z,5.80
2018-06-27T00:06:45.321Z,5.93
2018-06-27T00:09:13.184Z,5.97
2018-06-27T00:11:41.139Z,5.33
2018-06-27T00:14:09.071Z,7.23
2018-06-27T00:16:37.036Z,6.70
2018-06-27T00:19:04.892Z,6.10
2018-06-27T00:21:32.741Z,4.93
2018-06-27T00:24:00.593Z,5.70
2018-06-27T00:26:28.391Z,4.87
2018-06-27T00:28:56.276Z,4.60
2018-06-27T00:31:24.160Z,4.43
2018-06-27T00:33:51.966Z,4.57
2018-06-27T00:36:20.043Z,4.47
2018-06-27T00:38:47.900Z,5.20
2018-06-27T00:41:15.761Z,4.40
2018-06-27T00:43:43.636Z,4.53
2018-06-27T00:46:11.409Z,5.03
2018-06-27T00:48:39.296Z,4.50
2018-06-27T00:51:07.201Z,3.80
2018-06-27T00:53:40.743Z,4.30
2018-06-27T00:56:08.620Z,4.30
2018-06-27T00:58:36.517Z,4.10
2018-06-27T01:01:04.416Z,4.40
2018-06-27T01:03:32.291Z,3.90
2018-06-27T01:06:00.188Z,3.90
2018-06-27T01:08:28.028Z,4.40
2018-06-27T01:10:55.920Z,4.73
2018-06-27T01:13:23.827Z,4.43
2018-06-27T01:15:51.660Z,5.27
2018-06-27T01:18:19.506Z,5.17
2018-06-27T01:20:47.392Z,4.23
2018-06-27T01:23:15.152Z,4.43
2018-06-27T01:25:43.031Z,4.33
2018-06-27T01:28:10.900Z,4.17
2018-06-27T01:30:38.793Z,4.10
2018-06-27T01:33:06.664Z,3.70
2018-06-27T01:35:34.641Z,4.00
2018-06-27T01:38:02.468Z,3.90
2018-06-27T01:40:30.285Z,4.13
2018-06-27T01:42:58.109Z,5.40
2018-06-27T01:45:25.992Z,4.20
2018-06-27T01:47:53.810Z,4.50
2018-06-27T01:50:22.536Z,4.50
2018-06-27T01:52:50.673Z,3.93
2018-06-27T01:55:18.505Z,4.00
2018-06-27T01:57:46.480Z,4.20
2018-06-27T02:00:14.398Z,4.03
2018-06-27T02:02:42.248Z,4.67
2018-06-27T02:05:10.033Z,4.37
2018-06-27T02:07:37.917Z,3.30
2018-06-27T02:10:05.802Z,3.37
2018-06-27T02:12:33.664Z,4.10
2018-06-27T02:15:01.484Z,4.00
2018-06-27T02:17:29.317Z,3.60
2018-06-27T02:19:57.173Z,3.70
2018-06-27T02:22:24.961Z,3.50
2018-06-27T02:24:52.765Z,3.93
2018-06-27T02:27:20.769Z,3.83
2018-06-27T02:29:48.621Z,4.20
2018-06-27T02:32:16.450Z,3.77
2018-06-27T02:34:44.284Z,3.57
2018-06-27T02:37:12.127Z,3.67
2018-06-27T02:39:39.925Z,4.33
2018-06-27T02:42:07.813Z,4.70
2018-06-27T02:44:35.610Z,3.87
2018-06-27T02:47:03.445Z,4.50
2018-06-27T02:49:31.293Z,4.53
2018-06-27T02:51:59.242Z,5.13
2018-06-27T02:54:27.107Z,4.90
2018-06-27T02:56:55.057Z,3.87
2018-06-27T02:59:23.020Z,4.27
2018-06-27T03:01:51.012Z,6.77
2018-06-27T03:04:19.004Z,4.47
2018-06-27T03:06:46.897Z,4.80
2018-06-27T03:09:14.720Z,4.30
2018-06-27T03:11:42.617Z,4.10
2018-06-27T03:14:10.469Z,3.60
2018-06-27T03:16:38.347Z,3.97
2018-06-27T03:19:06.201Z,4.80
2018-06-27T03:21:34.304Z,4.40
2018-06-27T03:24:02.182Z,4.23
2018-06-27T03:26:29.964Z,4.80
2018-06-27T03:28:57.857Z,4.83
2018-06-27T03:31:25.722Z,4.80
2018-06-27T03:33:53.946Z,5.60
2018-06-27T03:36:21.805Z,4.47
2018-06-27T03:38:49.769Z,5.33
2018-06-27T03:41:17.669Z,4.13
2018-06-27T03:43:45.637Z,4.67
2018-06-27T03:46:13.561Z,4.50
2018-06-27T03:48:41.441Z,5.00
2018-06-27T03:51:09.332Z,4.20
2018-06-27T03:53:46.523Z,4.50
2018-06-27T03:56:14.492Z,4.73
2018-06-27T03:58:42.711Z,3.97
2018-06-27T04:01:10.674Z,3.90
2018-06-27T04:03:39.895Z,4.37
2018-06-27T04:06:08.682Z,4.27
2018-06-27T04:08:36.604Z,4.17
2018-06-27T04:11:04.584Z,4.50
2018-06-27T04:13:32.676Z,4.80
2018-06-27T04:16:00.684Z,4.73
2018-06-27T04:18:28.556Z,4.80
2018-06-27T04:20:56.720Z,4.57
2018-06-27T04:23:24.595Z,4.23
2018-06-27T04:25:52.517Z,4.13
2018-06-27T04:28:20.699Z,3.60
2018-06-27T04:30:48.556Z,3.73
2018-06-27T04:33:16.660Z,4.00
2018-06-27T04:35:44.477Z,3.80
2018-06-27T04:38:12.438Z,4.80
2018-06-27T04:40:40.317Z,4.13
2018-06-27T04:43:08.192Z,4.30
2018-06-27T04:45:36.076Z,4.90
2018-06-27T04:48:04.007Z,5.40
2018-06-27T04:50:31.872Z,4.80
2018-06-27T04:52:59.709Z,4.33
2018-06-27T04:55:27.610Z,5.27
2018-06-27T04:57:55.813Z,4.87
2018-06-27T05:00:24.215Z,5.03
2018-06-27T05:02:52.064Z,4.90
2018-06-27T05:05:19.917Z,4.30
2018-06-27T05:07:47.765Z,5.53
2018-06-27T05:10:15.661Z,4.60
2018-06-27T05:12:43.462Z,5.33
2018-06-27T05:15:11.392Z,5.07
2018-06-27T05:17:39.647Z,4.33
2018-06-27T05:20:07.557Z,5.57
2018-06-27T05:22:35.493Z,4.53
2018-06-27T05:25:03.572Z,4.70
2018-06-27T05:27:31.635Z,5.00
2018-06-27T05:29:59.511Z,4.17
2018-06-27T05:32:27.460Z,4.70
2018-06-27T05:34:55.303Z,4.67
2018-06-27T05:37:23.169Z,4.10
2018-06-27T05:39:51.310Z,4.00
2018-06-27T05:42:19.325Z,4.50
2018-06-27T05:44:47.208Z,4.00
2018-06-27T05:47:15.573Z,4.40
2018-06-27T05:49:43.543Z,3.90
2018-06-27T05:52:11.444Z,4.87
2018-06-27T05:54:39.297Z,4.60
2018-06-27T05:57:07.174Z,4.30
2018-06-27T05:59:35.037Z,4.30
2018-06-27T06:02:03.177Z,4.30
2018-06-27T06:04:31.450Z,4.37
2018-06-27T06:06:59.428Z,4.27
2018-06-27T06:09:27.416Z,4.07
2018-06-27T06:11:55.269Z,4.07
2018-06-27T06:14:23.221Z,3.60
2018-06-27T06:16:51.202Z,3.57
2018-06-27T06:19:19.043Z,3.97
2018-06-27T06:21:47.045Z,4.10
2018-06-27T06:24:14.940Z,3.90
2018-06-27T06:26:42.876Z,4.70
2018-06-27T06:29:10.712Z,3.60
2018-06-27T06:31:38.636Z,4.00
2018-06-27T06:34:06.788Z,3.73
2018-06-27T06:36:34.996Z,4.00
2018-06-27T06:39:03.233Z,4.30
2018-06-27T06:41:31.168Z,4.70
2018-06-27T06:43:59.056Z,4.33
2018-06-27T06:46:27.024Z,4.53
2018-06-27T06:48:54.875Z,3.67
2018-06-27T06:51:22.997Z,3.80
2018-06-27T06:53:50.732Z,4.80
2018-06-27T06:56:18.571Z,4.70
2018-06-27T06:58:46.451Z,4.30
2018-06-27T07:01:14.385Z,3.60
2018-06-27T07:03:42.450Z,3.73
2018-06-27T07:06:10.462Z,4.70
2018-06-27T07:08:38.248Z,3.73
2018-06-27T07:11:06.249Z,3.57
2018-06-27T07:13:34.008Z,4.20
2018-06-27T07:16:01.869Z,4.17
2018-06-27T07:18:30.125Z,4.60
2018-06-27T07:20:58.041Z,3.87
2018-06-27T07:23:26.228Z,3.90
2018-06-27T07:25:54.408Z,4.13
2018-06-27T07:28:22.253Z,3.90
2018-06-27T07:30:50.378Z,3.80
2018-06-27T07:33:18.236Z,4.50
2018-06-27T07:35:46.112Z,4.00
2018-06-27T07:38:14.237Z,4.20
2018-06-27T07:40:42.153Z,4.03
2018-06-27T07:43:10.022Z,3.30
2018-06-27T07:45:37.931Z,4.53
2018-06-27T07:48:05.819Z,3.53
2018-06-27T07:50:33.706Z,3.33
2018-06-27T07:53:01.540Z,3.50
2018-06-27T07:55:29.452Z,3.37
2018-06-27T07:57:57.296Z,2.97
2018-06-27T08:00:25.181Z,3.73
2018-06-27T08:02:53.100Z,3.10
2018-06-27T08:05:21.965Z,4.97
2018-06-27T08:07:51.216Z,3.10
2018-06-27T08:10:19.060Z,3.90
2018-06-27T08:12:46.926Z,2.93
2018-06-27T08:15:14.899Z,3.80
2018-06-27T08:17:43.261Z,3.63
2018-06-27T08:20:11.089Z,4.10
2018-06-27T08:22:38.936Z,4.07
2018-06-27T08:25:07.000Z,3.60
2018-06-27T08:27:35.185Z,3.37
2018-06-27T08:30:03.278Z,3.50
2018-06-27T08:32:31.444Z,3.20
2018-06-27T08:34:59.477Z,4.20
2018-06-27T08:37:27.401Z,3.97
2018-06-27T08:39:55.340Z,3.40
2018-06-27T08:42:23.238Z,3.60
2018-06-27T08:44:51.288Z,4.10
2018-06-27T08:47:19.548Z,3.57
2018-06-27T08:49:47.341Z,4.40
2018-06-27T08:52:15.614Z,3.63
2018-06-27T08:54:45.827Z,3.20
2018-06-27T08:57:14.777Z,3.87
2018-06-27T08:59:42.796Z,3.23
2018-06-27T09:02:10.660Z,3.10
2018-06-27T09:04:38.461Z,2.83
2018-06-27T09:07:06.765Z,4.40
2018-06-27T09:09:34.566Z,3.33
2018-06-27T09:12:02.452Z,3.30
2018-06-27T09:14:30.401Z,3.20
2018-06-27T09:16:58.323Z,4.03
2018-06-27T09:19:26.638Z,3.10
2018-06-27T09:21:54.544Z,3.87
2018-06-27T09:24:22.872Z,3.33
2018-06-27T09:26:50.796Z,3.47
2018-06-27T09:29:18.563Z,3.00
2018-06-27T09:31:46.505Z,3.27
2018-06-27T09:34:14.452Z,3.17
2018-06-27T09:36:42.305Z,2.57
2018-06-27T09:39:10.604Z,3.40
2018-06-27T09:41:38.608Z,2.30
2018-06-27T09:44:06.648Z,2.57
2018-06-27T09:46:34.980Z,2.33
2018-06-27T09:49:03.168Z,2.40
2018-06-27T09:51:30.976Z,1.80
2018-06-27T09:53:58.858Z,2.17
2018-06-27T09:56:27.421Z,1.93
2018-06-27T09:58:55.230Z,2.10
2018-06-27T10:01:23.089Z,1.87
2018-06-27T10:03:51.060Z,2.10
2018-06-27T10:06:18.969Z,1.67
2018-06-27T10:08:46.861Z,2.00
2018-06-27T10:11:14.753Z,1.40
2018-06-27T10:13:43.236Z,1.97
2018-06-27T10:16:11.169Z,1.43
2018-06-27T10:18:39.107Z,1.70
2018-06-27T10:21:07.430Z,1.30
2018-06-27T10:23:36.312Z,1.40
2018-06-27T10:26:04.509Z,1.27
2018-06-27T10:28:34.284Z,1.67
2018-06-27T10:31:02.221Z,1.37
2018-06-27T10:33:30.941Z,1.40
2018-06-27T10:35:58.953Z,1.30
2018-06-27T10:38:26.841Z,1.70
2018-06-27T10:40:54.649Z,2.00
2018-06-27T10:43:22.596Z,1.60
2018-06-27T10:45:50.756Z,1.97
2018-06-27T10:48:18.693Z,1.73
2018-06-27T10:50:47.161Z,1.60
2018-06-27T10:53:15.060Z,1.80
2018-06-27T10:55:42.936Z,2.40
2018-06-27T10:58:10.773Z,1.40
2018-06-27T11:00:38.677Z,1.87
2018-06-27T11:03:06.917Z,1.73
2018-06-27T11:05:34.716Z,2.10
2018-06-27T11:08:02.679Z,1.50
2018-06-27T11:10:31.108Z,1.47
2018-06-27T11:12:59.018Z,1.93
2018-06-27T11:15:27.197Z,1.40
2018-06-27T11:17:55.020Z,1.40
2018-06-27T11:20:22.903Z,1.53
2018-06-27T11:22:50.864Z,1.70
2018-06-27T11:25:18.873Z,2.13
2018-06-27T11:27:46.829Z,1.60
2018-06-27T11:30:15.086Z,1.60
2018-06-27T11:32:42.935Z,1.90
2018-06-27T11:35:10.790Z,1.83
2018-06-27T11:37:39.452Z,1.67
2018-06-27T11:40:07.412Z,1.80
2018-06-27T11:42:40.985Z,2.20
2018-06-27T11:45:08.816Z,1.40
2018-06-27T11:47:36.672Z,1.70
2018-06-27T11:50:04.913Z,1.57
2018-06-27T11:52:32.865Z,1.57
2018-06-27T11:55:06.381Z,1.80
2018-06-27T11:57:34.599Z,1.47
2018-06-27T12:00:02.892Z,1.90
2018-06-27T12:02:31.341Z,1.83
2018-06-27T12:04:59.175Z,1.50
2018-06-27T12:07:27.264Z,1.70
2018-06-27T12:09:55.365Z,1.90
2018-06-27T12:12:23.297Z,1.80
2018-06-27T12:14:51.248Z,2.07
2018-06-27T12:17:19.276Z,1.60
2018-06-27T12:19:47.136Z,1.43
2018-06-27T12:22:15.058Z,1.17
2018-06-27T12:24:42.970Z,2.17
2018-06-27T12:27:10.875Z,1.53
2018-06-27T12:29:38.797Z,1.40
2018-06-27T12:32:06.701Z,1.90
2018-06-27T12:34:34.560Z,1.43
2018-06-27T12:37:02.709Z,1.57
2018-06-27T12:39:30.641Z,1.80
2018-06-27T12:41:58.455Z,1.83
2018-06-27T12:44:26.280Z,1.50
2018-06-27T12:46:54.118Z,1.93
2018-06-27T12:49:22.184Z,1.73
2018-06-27T12:51:50.084Z,2.50
2018-06-27T12:54:18.352Z,1.17
2018-06-27T12:56:46.253Z,1.50
2018-06-27T12:59:14.392Z,1.70
2018-06-27T13:01:42.559Z,1.70
2018-06-27T13:04:10.485Z,1.20
2018-06-27T13:06:38.404Z,1.30
2018-06-27T13:09:08.279Z,1.40
2018-06-27T13:11:36.452Z,1.37
2018-06-27T13:14:05.612Z,1.63
2018-06-27T13:16:33.936Z,1.60
2018-06-27T13:19:01.861Z,1.20
2018-06-27T13:21:29.912Z,1.40
2018-06-27T13:23:57.828Z,1.40
2018-06-27T13:26:25.701Z,1.67
2018-06-27T13:28:53.617Z,1.50
2018-06-27T13:31:21.527Z,1.40
2018-06-27T13:33:49.667Z,1.33
2018-06-27T13:36:17.625Z,1.87
2018-06-27T13:38:45.465Z,1.50
2018-06-27T13:41:13.346Z,2.20
2018-06-27T13:43:41.233Z,1.70
2018-06-27T13:46:09.820Z,1.60
2018-06-27T13:48:37.616Z,1.17
2018-06-27T13:51:05.647Z,1.63
2018-06-27T13:53:33.548Z,1.50
2018-06-27T13:56:01.473Z,1.80
2018-06-27T13:58:29.344Z,1.90
2018-06-27T14:00:57.223Z,1.70
2018-06-27T14:03:26.205Z,2.70
2018-06-27T14:05:54.937Z,1.80
2018-06-27T14:08:22.831Z,1.60
2018-06-27T14:10:50.701Z,1.77
2018-06-27T14:13:19.793Z,1.73
2018-06-27T14:15:47.694Z,1.93
2018-06-27T14:18:15.528Z,1.30
2018-06-27T14:20:43.471Z,1.70
2018-06-27T14:23:13.167Z,2.70
2018-06-27T14:25:41.281Z,2.00
2018-06-27T14:28:09.453Z,2.30
2018-06-27T14:30:37.512Z,1.80
2018-06-27T14:33:05.392Z,1.83
2018-06-27T14:35:33.786Z,2.10
2018-06-27T14:38:01.718Z,2.60
2018-06-27T14:40:29.718Z,2.00
2018-06-27T14:42:57.592Z,1.90
2018-06-27T14:45:25.493Z,1.97
2018-06-27T14:47:53.449Z,1.77
2018-06-27T14:50:21.771Z,1.63
2018-06-27T14:52:49.707Z,2.77
2018-06-27T14:55:17.530Z,2.50
2018-06-27T14:57:46.660Z,1.80
2018-06-27T15:00:14.571Z,1.80
2018-06-27T15:02:43.149Z,1.40
2018-06-27T15:05:11.142Z,1.47
2018-06-27T15:07:39.069Z,1.43
2018-06-27T15:10:07.104Z,2.07
2018-06-27T15:12:35.753Z,1.43
2018-06-27T15:15:04.115Z,1.80
2018-06-27T15:17:32.316Z,1.83
2018-06-27T15:20:00.581Z,2.30
2018-06-27T15:22:28.558Z,1.50
2018-06-27T15:24:57.604Z,2.10
2018-06-27T15:27:26.069Z,2.23
2018-06-27T15:29:54.349Z,1.90
2018-06-27T15:32:22.232Z,1.87
2018-06-27T15:34:50.059Z,1.90
2018-06-27T15:37:18.106Z,1.70
2018-06-27T15:39:46.048Z,1.43
2018-06-27T15:42:13.993Z,1.60
2018-06-27T15:44:41.880Z,1.57
2018-06-27T15:47:09.844Z,1.80
2018-06-27T15:49:37.730Z,1.67
2018-06-27T15:52:06.293Z,1.50
2018-06-27T15:54:34.081Z,1.87
2018-06-27T15:57:02.762Z,1.47
2018-06-27T15:59:30.810Z,1.80
2018-06-27T16:02:00.381Z,1.93
2018-06-27T16:04:28.260Z,1.57
2018-06-27T16:06:56.211Z,1.50
2018-06-27T16:09:24.136Z,2.00
2018-06-27T16:11:52.169Z,1.67
2018-06-27T16:14:20.000Z,1.80
2018-06-27T16:16:48.066Z,1.67
2018-06-27T16:19:17.019Z,1.77
2018-06-27T16:21:44.921Z,1.37
2018-06-27T16:24:12.852Z,1.57
2018-06-27T16:26:40.960Z,1.40
2018-06-27T16:29:09.817Z,1.67
2018-06-27T16:31:39.100Z,1.50
2018-06-27T16:34:08.346Z,1.43
2018-06-27T16:36:36.282Z,1.30
2018-06-27T16:39:07.192Z,1.13
2018-06-27T16:41:35.405Z,1.50
2018-06-27T16:44:03.313Z,1.10
2018-06-27T16:46:31.405Z,1.00
2018-06-27T16:48:59.663Z,1.27
2018-06-27T16:51:28.314Z,1.30
2018-06-27T16:53:56.730Z,2.57
2018-06-27T16:56:24.622Z,1.60
2018-06-27T16:58:52.581Z,1.33
2018-06-27T17:01:20.661Z,2.07
2018-06-27T17:03:48.461Z,1.30
2018-06-27T17:06:16.672Z,1.50
2018-06-27T17:08:44.518Z,1.33
2018-06-27T17:11:12.454Z,1.10
2018-06-27T17:13:40.686Z,1.00
2018-06-27T17:16:08.734Z,1.17
2018-06-27T17:18:36.670Z,1.17
2018-06-27T17:21:04.833Z,1.40
2018-06-27T17:23:32.849Z,1.40
2018-06-27T17:26:02.487Z,1.20
2018-06-27T17:28:30.473Z,1.57
2018-06-27T17:30:58.316Z,1.13
2018-06-27T17:33:26.151Z,1.40
2018-06-27T17:35:54.102Z,1.13
2018-06-27T17:38:23.920Z,1.63
2018-06-27T17:40:51.833Z,1.30
2018-06-27T17:43:19.649Z,1.30
2018-06-27T17:45:47.779Z,1.23
2018-06-27T17:48:15.816Z,1.50
2018-06-27T17:50:43.642Z,1.80
2018-06-27T17:53:12.284Z,1.93
2018-06-27T17:55:42.619Z,1.57
2018-06-27T17:58:10.661Z,1.93
2018-06-27T18:00:38.525Z,2.27
2018-06-27T18:03:06.544Z,2.00
2018-06-27T18:05:35.259Z,1.73
2018-06-27T18:08:03.865Z,1.87
2018-06-27T18:10:32.145Z,1.83
2018-06-27T18:13:00.239Z,1.80
2018-06-27T18:15:28.541Z,1.37
2018-06-27T18:17:57.706Z,1.90
2018-06-27T18:20:25.528Z,2.03
2018-06-27T18:22:53.836Z,2.00
2018-06-27T18:25:21.994Z,2.60
2018-06-27T18:27:49.997Z,2.17
2018-06-27T18:30:17.973Z,2.30
2018-06-27T18:32:50.691Z,2.03
2018-06-27T18:35:18.833Z,1.90
2018-06-27T18:37:46.729Z,1.90
2018-06-27T18:40:17.444Z,2.23
2018-06-27T18:42:45.410Z,2.10
2018-06-27T18:45:13.847Z,2.00
2018-06-27T18:47:41.895Z,2.20
2018-06-27T18:50:09.906Z,2.17
2018-06-27T18:52:41.715Z,2.87
2018-06-27T18:55:12.421Z,6.53
2018-06-27T18:57:40.780Z,2.13
2018-06-27T19:00:09.913Z,2.00
2018-06-27T19:02:38.945Z,2.20
2018-06-27T19:05:06.927Z,2.03
2018-06-27T19:07:34.913Z,3.47
2018-06-27T19:10:03.320Z,2.90
2018-06-27T19:12:33.232Z,2.33
2018-06-27T19:15:01.102Z,1.97
2018-06-27T19:17:28.957Z,2.43
2018-06-27T19:19:56.742Z,2.20
2018-06-27T19:22:33.773Z,1.90
2018-06-27T19:25:02.830Z,2.00
2018-06-27T19:27:30.853Z,2.10
2018-06-27T19:29:58.805Z,1.90
2018-06-27T19:32:27.405Z,2.20
2018-06-27T19:35:09.285Z,2.37
2018-06-27T19:37:37.349Z,1.70
2018-06-27T19:40:05.660Z,2.00
2018-06-27T19:42:34.782Z,1.97
2018-06-27T19:45:03.801Z,2.70
2018-06-27T19:47:31.704Z,1.80
2018-06-27T19:49:59.770Z,2.30
2018-06-27T19:52:27.728Z,2.33
2018-06-27T19:54:55.567Z,2.50
2018-06-27T19:57:23.458Z,2.17
2018-06-27T19:59:51.389Z,2.03
2018-06-27T20:02:19.343Z,1.77
2018-06-27T20:04:47.294Z,2.40
2018-06-27T20:07:15.147Z,1.70
2018-06-27T20:09:43.096Z,2.50
2018-06-27T20:12:10.896Z,2.40
2018-06-27T20:14:38.824Z,1.90
2018-06-27T20:17:06.747Z,1.90
2018-06-27T20:19:34.591Z,1.70
2018-06-27T20:22:02.560Z,2.13
2018-06-27T20:24:30.438Z,1.90
2018-06-27T20:26:58.333Z,2.13
2018-06-27T20:29:26.229Z,1.80
2018-06-27T20:31:54.214Z,2.20
2018-06-27T20:34:22.109Z,1.63
2018-06-27T20:36:49.928Z,2.00
2018-06-27T20:39:17.777Z,1.67
2018-06-27T20:41:45.585Z,2.10
2018-06-27T20:44:13.426Z,1.97
2018-06-27T20:46:41.352Z,1.90
2018-06-27T20:49:09.307Z,1.83
2018-06-27T20:51:37.008Z,1.60
2018-06-27T20:54:05.514Z,1.33
2018-06-27T20:56:33.609Z,1.77
2018-06-27T20:59:01.486Z,1.60
2018-06-27T21:01:29.425Z,1.77
2018-06-27T21:03:57.197Z,1.47
2018-06-27T21:06:25.394Z,1.47
2018-06-27T21:08:53.257Z,1.50
2018-06-27T21:34:01.291Z,1.67
2018-06-27T21:36:29.197Z,1.47
2018-06-27T21:38:57.845Z,1.50
2018-06-27T21:41:25.681Z,1.90
2018-06-27T21:43:53.511Z,1.97
2018-06-27T21:46:21.420Z,1.53
2018-06-27T21:48:49.249Z,1.67
2018-06-27T21:51:17.112Z,1.47
2018-06-27T21:53:44.912Z,1.63
2018-06-27T21:56:12.781Z,1.70
2018-06-27T21:58:40.577Z,1.43
2018-06-27T22:01:08.496Z,1.63
2018-06-27T22:03:36.320Z,1.93
2018-06-27T22:06:04.338Z,1.50
2018-06-27T22:08:32.237Z,1.67
2018-06-27T22:11:00.228Z,1.60
2018-06-27T22:13:28.041Z,1.57
2018-06-27T22:15:55.949Z,1.77
2018-06-27T22:18:23.768Z,2.00
2018-06-27T22:20:51.675Z,1.60
2018-06-27T22:23:19.701Z,1.47
2018-06-27T22:25:47.513Z,1.50
2018-06-27T22:28:15.353Z,1.30
2018-06-27T22:30:43.195Z,1.70
2018-06-27T22:33:11.056Z,1.90
2018-06-27T22:35:38.964Z,1.60
2018-06-27T22:38:06.877Z,1.77
2018-06-27T22:40:34.705Z,1.93
2018-06-27T22:43:02.664Z,1.83
2018-06-27T22:45:30.637Z,1.50
2018-06-27T22:47:58.442Z,1.40
2018-06-27T22:50:26.272Z,1.93
2018-06-27T22:52:54.258Z,2.30
2018-06-27T22:55:22.104Z,1.57
2018-06-27T22:57:49.980Z,2.07
2018-06-27T23:00:21.022Z,1.77
2018-06-27T23:02:48.768Z,2.30
2018-06-27T23:05:16.621Z,2.20
2018-06-27T23:07:44.497Z,1.73
2018-06-27T23:10:12.351Z,1.67
2018-06-27T23:12:40.256Z,1.70
2018-06-27T23:15:08.185Z,2.00
2018-06-27T23:17:36.043Z,1.67
2018-06-27T23:20:04.157Z,2.00
2018-06-27T23:22:47.060Z,1.50
2018-06-27T23:25:15.085Z,1.80
2018-06-27T23:27:43.359Z,2.10
2018-06-27T23:30:11.221Z,1.63
2018-06-27T23:32:39.668Z,1.27
2018-06-27T23:35:07.916Z,2.33
2018-06-27T23:37:36.255Z,1.73
2018-06-27T23:40:04.146Z,2.00
2018-06-27T23:42:32.086Z,1.83
2018-06-27T23:45:00.274Z,1.80
2018-06-27T23:47:28.232Z,2.00
2018-06-27T23:49:56.144Z,1.73
2018-06-27T23:52:24.011Z,2.00
2018-06-27T23:54:51.905Z,1.60
2018-06-27T23:57:19.800Z,1.60
2018-06-27T23:59:47.893Z,1.90
